x

South Santa Rosa Is. Ca (46069) Wave Buoy

7:50 - Tue 26th May 2015 All times are PDT. -7 hours from GMT.

  • Sig Wave height 4.9ft
  • Peak Period 14s
  • Average Period 6s
  • Wind
    18mph, 20mph gusts
  • Sea Temp 60°f
  • Air Temp 57°f
  • Sea Pressure 1014.9mb
  • South Santa Rosa Is. Ca
  • South Santa Rosa Is. Ca

More Historic Weather Station data

Upgrade to MSW Pro to gain access to the past 30 days of data for over 8000 Wavebouys and Weather Stations around the globe.

Join Pro

Comparision Forecast

View Surf forecast
   
mar. 05/26 7:50 5ft 14s 6s 18 20 mph 1014.9mb 60f 57f
6:50 4.5ft 14s 6s 18 20 mph 1015mb 60f 58f
5:50 4.5ft 11s 6s 16 20 mph 1015.3mb 60f 58f
4:50 4.5ft 17s 6s 16 20 mph 1015.6mb 60f 58f
3:50 4.5ft 15s 7s 16 18 mph 1015.8mb 60f 58f
2:50 5ft 15s 7s 13 18 mph 1016.1mb 60f 57f
1:50 5ft 14s 7s 13 16 mph 1016.5mb 60f 57f
12:50 4.5ft 14s 7s 13 16 mph 1016.5mb 60f 57f
11:50 5ft 11s 7s 16 18 mph 1016.7mb 60f 56f
9:50 4.5ft 14s 6s 13 18 mph 1016.2mb 59f 56f
8:50 4.5ft 14s 7s 16 22 mph 1016mb 59f 56f
7:50 5ft 15s 7s 13 16 mph 1015.8mb 59f 55f
6:50 5ft 15s 7s 13 18 mph 1015.5mb 59f 55f
5:50 5ft 15s 7s 13 16 mph 1015.2mb 59f 56f
4:50 5ft 15s 7s 16 20 mph 1015.1mb 59f 56f
3:50 5ft 15s 7s 16 20 mph 1015.1mb 59f 56f
2:50 5ft 15s 6s 16 20 mph 1014.9mb 59f 56f
1:50 5ft 15s 6s 13 18 mph 1015.2mb 59f 57f
12:50 5ft 15s 6s 18 20 mph 1015.3mb 60f 57f
lun. 05/25 11:50 5ft 15s 6s 18 22 mph 1015.5mb 60f 58f
10:50 5ft 15s 7s 18 20 mph 1015.5mb 60f 58f
9:50 4.5ft 15s 6s 16 20 mph 1015.5mb 60f 58f
8:50 4.5ft 15s 6s 16 18 mph 1015.1mb 60f 58f
7:50 5ft 15s 7s 16 18 mph 1014.6mb 60f 58f
6:50 5ft 15s 7s 16 18 mph 1014.5mb 60f 58f
5:50 5ft 16s 7s 13 16 mph 1014.6mb 60f 58f
4:50 5.5ft 15s 7s 13 16 mph 1014.9mb 60f 57f
3:50 5.5ft 15s 7s 13 18 mph 1015.2mb 60f 57f
2:50 5ft 15s 7s 11 13 mph 1015.8mb 60f 57f
1:50 5ft 8s 6s 11 13 mph 1015.9mb 60f 57f
12:50 6ft 16s 7s 11 13 mph 1016mb 59f 56f
11:50 5ft 15s 6s 13 18 mph 1016.3mb 59f 56f
10:50 5ft 9s 6s 16
mph
1015.9mb 59f 56f
9:50 5ft 15s 6s 16 18 mph 1016mb 59f 56f
8:50 5.5ft 16s 6s 16 18 mph 1015.4mb 59f 56f
7:50 5ft 16s 6s 16 20 mph 1014.8mb 59f 56f
6:50 5.5ft 8s 6s 18 22 mph 1014.2mb 59f 56f
5:50 6ft 16s 6s 18 20 mph 1014mb 59f 56f
4:50 6ft 9s 6s 18 22 mph 1013.5mb 59f 56f
3:50 6ft 8s 6s 20 25 mph 1013.8mb 59f 56f
2:50 6.5ft 8s 6s 20 25 mph 1013.8mb 59f 56f
1:50 6ft 9s 6s 18 22 mph 1014.2mb 59f 57f
12:50 6ft 8s 6s 20 25 mph 1014.4mb 59f 57f
dim. 05/24 11:50 5.5ft 9s 6s 20 27 mph 1014.5mb 59f 57f
10:50 6ft 9s 6s 22 27 mph 1014.9mb 59f 57f
9:50 5.5ft 16s 6s 20 22 mph 1014.8mb 59f 57f
8:50 5ft 9s 5s 20 25 mph 1014.3mb 59f 57f
7:50 5ft 8s 5s 18 22 mph 1014.4mb 59f 57f
6:50 5ft 8s 5s 20 22 mph 1014.2mb 60f 57f
5:50 5ft 8s 5s 20 22 mph 1014.5mb 60f 57f
4:50 5ft 7s 5s 18 22 mph 1014.6mb 60f 58f
3:50 5.5ft 8s 5s 18 20 mph 1015.1mb 60f 57f
2:50 5.5ft 8s 5s 20 25 mph 1015.6mb 60f 58f
1:50 5.5ft 8s 5s 20 25 mph 1016.3mb 59f 57f
12:50 6ft 8s 6s 16 20 mph 1017mb 59f 57f
11:50 6ft 8s 6s 20 22 mph 1017.3mb 59f 57f
10:50 6.5ft 8s 6s 20 25 mph 1017.2mb 59f 57f
9:50 7ft 8s 6s 22 27 mph 1017mb 59f 57f
8:50 6.5ft 8s 6s 25 29 mph 1016.5mb 59f 57f
7:50 6.5ft 8s 6s 27 31 mph 1016.2mb 59f 57f
6:50 7ft 8s 6s 22 29 mph 1016.2mb 59f 57f
5:50 7ft 8s 6s 25 29 mph 1015.5mb 59f 57f
4:50 6.5ft 7s 6s 25 29 mph 1015.7mb 59f 57f
3:50 7ft 9s 6s 22 29 mph 1015.9mb 59f 57f
2:50 7ft 7s 6s 25 29 mph 1015.9mb 58f 57f
1:50 7ft 7s 5s 25 29 mph 1016.1mb 59f 57f
12:50 7ft 7s 5s 27 34 mph 1016.1mb 59f 57f
sam. 05/23 11:50 7ft 6s 5s 27 34 mph 1016.8mb 59f 57f
10:50 6.5ft 7s 5s 27 34 mph 1016.9mb 59f 57f
9:50 6.5ft 6s 5s 27 34 mph 1017mb 59f 58f
8:50 6ft 7s 5s 29 36 mph 1016.6mb 60f 58f
7:50 6ft 6s 5s 29 34 mph 1016.6mb 60f 58f
6:50 6ft 6s 5s 27 31 mph 1016.9mb 60f 58f
5:50 6ft 6s 5s 27 31 mph 1017.1mb 60f 58f
4:50 5ft 6s 4s 25 29 mph 1017.2mb 60f 58f
3:50 4.5ft 6s 4s 22 27 mph 1017.7mb 60f 58f
2:50 5ft 6s 5s 20 25 mph 1018.5mb 60f 58f
1:50 4.5ft 5s 4s 20 22 mph 1018.7mb 60f 58f
12:50 4.5ft 6s 5s 18 22 mph 1019.2mb 60f 57f
11:50 4.5ft 5s 5s 20 22 mph 1019.4mb 59f 58f
10:50 4.5ft 5s 5s 18 22 mph 1019.7mb 59f 58f
9:50 4.5ft 10s 5s 18 22 mph 1019.5mb 59f 58f
8:50 4.5ft 11s 5s 18 22 mph 1019.3mb 59f 58f
7:50 4.5ft 10s 5s 20 22 mph 1018.7mb 59f 58f
6:50 4.5ft 11s 5s 18 22 mph 1018.4mb 59f 58f
5:50 4.5ft 11s 5s 18 25 mph 1017.8mb 59f 58f
4:50 4.5ft 11s 5s 18 22 mph 1017.7mb 59f 58f